createdAt,value
2019-03-11T00:01:13.766Z,99604.89
2019-03-11T00:03:42.937Z,99598.42
2019-03-11T00:06:11.983Z,99595.82
2019-03-11T00:08:41.071Z,99587.56
2019-03-11T00:11:10.205Z,99584.95
2019-03-11T00:13:39.349Z,99571.95
2019-03-11T00:16:08.498Z,99568.51
2019-03-11T00:18:37.664Z,99565.89
2019-03-11T00:21:06.736Z,99563.72
2019-03-11T00:23:35.864Z,99563.28
2019-03-11T00:26:04.967Z,99567.22
2019-03-11T00:28:34.045Z,99560.70
2019-03-11T00:31:03.097Z,99563.75
2019-03-11T00:33:32.180Z,99564.17
2019-03-11T00:36:01.259Z,99565.48
2019-03-11T00:38:30.332Z,99560.28
2019-03-11T00:40:59.380Z,99552.03
2019-03-11T00:43:28.544Z,99551.16
2019-03-11T00:45:57.594Z,99549.85
2019-03-11T00:48:26.664Z,99550.75
2019-03-11T00:50:55.791Z,99577.64
2019-03-11T00:53:24.855Z,99552.91
2019-03-11T00:55:53.987Z,99576.77
2019-03-11T00:58:23.134Z,99581.97
2019-03-11T01:00:52.270Z,99578.91
2019-03-11T01:03:21.355Z,99575.90
2019-03-11T01:05:50.480Z,99561.59
2019-03-11T01:08:19.645Z,99567.22
2019-03-11T01:10:48.778Z,99558.11
2019-03-11T01:13:18.038Z,99586.73
2019-03-11T01:15:47.126Z,99577.62
2019-03-11T01:18:16.196Z,99580.69
2019-03-11T01:20:45.252Z,99582.84
2019-03-11T01:23:14.339Z,99572.86
2019-03-11T01:25:43.447Z,99565.06
2019-03-11T01:28:12.501Z,99561.56
2019-03-11T01:30:41.633Z,99575.02
2019-03-11T01:33:10.718Z,99578.48
2019-03-11T01:35:39.852Z,99575.45
2019-03-11T01:38:08.947Z,99591.92
2019-03-11T01:40:38.039Z,99580.66
2019-03-11T01:43:07.047Z,99585.41
2019-03-11T01:45:36.112Z,99590.63
2019-03-11T01:48:05.151Z,99579.34
2019-03-11T01:50:34.257Z,99577.59
2019-03-11T01:53:03.290Z,99584.13
2019-03-11T01:55:32.363Z,99564.16
2019-03-11T01:58:01.384Z,99576.72
2019-03-11T02:00:30.423Z,99586.71
2019-03-11T02:02:59.714Z,99571.97
2019-03-11T02:05:28.820Z,99566.76
2019-03-11T02:07:57.898Z,99556.34
2019-03-11T02:10:26.940Z,99561.56
2019-03-11T02:12:56.022Z,99556.78
2019-03-11T02:15:25.014Z,99554.19
2019-03-11T02:17:54.107Z,99565.05
2019-03-11T02:20:23.279Z,99561.15
2019-03-11T02:22:52.282Z,99551.14
2019-03-11T02:25:21.354Z,99549.44
2019-03-11T02:27:50.421Z,99549.43
2019-03-11T02:30:19.449Z,99553.34
2019-03-11T02:32:49.428Z,99547.68
2019-03-11T02:35:27.071Z,99553.34
2019-03-11T02:37:56.273Z,99551.19
2019-03-11T02:40:25.400Z,99555.52
2019-03-11T02:42:54.459Z,99554.64
2019-03-11T02:45:23.515Z,99552.47
2019-03-11T02:47:52.479Z,99552.05
2019-03-11T02:50:29.595Z,99540.34
2019-03-11T02:52:58.696Z,99545.98
2019-03-11T02:55:27.817Z,99542.06
2019-03-11T02:57:56.941Z,99547.27
2019-03-11T03:00:26.059Z,99549.45
2019-03-11T03:03:11.396Z,99554.22
2019-03-11T03:05:49.752Z,99545.10
2019-03-11T03:08:18.792Z,99548.12
2019-03-11T03:10:47.898Z,99547.26
2019-03-11T03:13:17.004Z,99535.98
2019-03-11T03:15:46.062Z,99543.80
2019-03-11T03:18:15.135Z,99534.66
2019-03-11T03:20:44.256Z,99530.77
2019-03-11T03:23:13.287Z,99523.39
2019-03-11T03:25:42.359Z,99531.19
2019-03-11T03:28:11.344Z,99529.89
2019-03-11T03:30:40.384Z,99547.67
2019-03-11T03:33:09.437Z,99546.38
2019-03-11T03:35:38.580Z,99553.34
2019-03-11T03:38:07.665Z,99558.98
2019-03-11T03:40:36.785Z,99557.24
2019-03-11T03:43:06.214Z,99550.28
2019-03-11T03:45:42.924Z,99552.89
2019-03-11T03:48:12.947Z,99552.91
2019-03-11T03:50:41.957Z,99547.28
2019-03-11T03:53:11.082Z,99547.25
2019-03-11T03:55:40.216Z,99542.91
2019-03-11T03:58:09.213Z,99548.12
2019-03-11T04:00:38.262Z,99546.80
2019-03-11T04:03:07.319Z,99549.36
2019-03-11T04:05:36.359Z,99556.30
2019-03-11T04:08:05.469Z,99556.70
2019-03-11T04:10:34.472Z,99551.05
2019-03-11T04:13:03.565Z,99555.81
2019-03-11T04:15:32.702Z,99556.72
2019-03-11T04:18:01.737Z,99554.95
2019-03-11T04:20:30.849Z,99560.17
2019-03-11T04:22:59.909Z,99560.17
2019-03-11T04:25:30.358Z,99560.19
2019-03-11T04:27:59.428Z,99561.95
2019-03-11T04:30:28.462Z,99564.13
2019-03-11T04:32:57.605Z,99554.13
2019-03-11T04:35:26.654Z,99550.65
2019-03-11T04:37:55.749Z,99554.98
2019-03-11T04:40:24.779Z,99557.63
2019-03-11T04:42:53.876Z,99558.92
2019-03-11T04:45:23.042Z,99565.87
2019-03-11T04:47:52.301Z,99560.20
2019-03-11T04:50:21.418Z,99567.61
2019-03-11T04:52:50.592Z,99572.80
2019-03-11T04:55:19.675Z,99570.62
2019-03-11T04:57:50.987Z,99568.49
2019-03-11T05:00:22.123Z,99577.59
2019-03-11T05:02:51.203Z,99580.64
2019-03-11T05:05:20.355Z,99578.91
2019-03-11T05:07:49.501Z,99596.25
2019-03-11T05:10:18.567Z,99592.33
2019-03-11T05:12:47.664Z,99588.86
2019-03-11T05:15:16.758Z,99582.36
2019-03-11T05:17:48.399Z,99584.94
2019-03-11T05:20:16.626Z,99578.00
2019-03-11T05:22:45.728Z,99579.73
2019-03-11T05:25:14.895Z,99575.37
2019-03-11T05:27:44.008Z,99593.58
2019-03-11T05:30:14.719Z,99600.94
2019-03-11T05:32:43.764Z,99602.66
2019-03-11T05:35:12.840Z,99609.14
2019-03-11T05:37:41.882Z,99603.09
2019-03-11T05:40:11.669Z,99614.32
2019-03-11T05:42:40.707Z,99609.09
2019-03-11T05:45:11.202Z,99609.09
2019-03-11T05:47:40.251Z,99606.03
2019-03-11T05:50:10.871Z,99607.33
2019-03-11T05:52:39.884Z,99609.94
2019-03-11T05:55:09.236Z,99609.50
2019-03-11T05:57:38.268Z,99610.36
2019-03-11T06:00:10.422Z,99612.08
2019-03-11T06:02:39.507Z,99613.81
2019-03-11T06:05:08.678Z,99618.56
2019-03-11T06:07:37.732Z,99616.33
2019-03-11T06:10:07.332Z,99617.63
2019-03-11T06:12:36.386Z,99624.55
2019-03-11T06:15:06.350Z,99622.84
2019-03-11T06:17:35.472Z,99621.49
2019-03-11T06:20:22.360Z,99624.98
2019-03-11T06:22:51.439Z,99634.11
2019-03-11T06:25:21.725Z,99638.41
2019-03-11T06:27:50.787Z,99640.12
2019-03-11T06:30:19.937Z,99631.37
2019-03-11T06:32:49.108Z,99630.44
2019-03-11T06:35:18.236Z,99633.02
2019-03-11T06:37:47.278Z,99636.05
2019-03-11T06:40:16.353Z,99631.27
2019-03-11T06:42:45.359Z,99638.62
2019-03-11T06:45:14.511Z,99639.02
2019-03-11T06:47:43.556Z,99554.51
2019-03-11T06:50:12.647Z,99635.52
2019-03-11T06:52:41.775Z,99658.90
2019-03-11T06:55:11.059Z,99659.73
2019-03-11T06:57:40.091Z,99667.05
2019-03-11T07:00:11.126Z,99666.13
2019-03-11T07:02:41.164Z,99668.68
2019-03-11T07:05:19.119Z,99684.61
2019-03-11T07:07:40.963Z,99689.78
2019-03-11T07:10:11.135Z,99696.63
2019-03-11T07:12:40.193Z,99697.92
2019-03-11T07:15:09.743Z,99692.70
2019-03-11T07:17:38.758Z,99701.34
2019-03-11T07:20:09.348Z,99697.97
2019-03-11T07:22:38.414Z,99703.66
2019-03-11T07:25:08.513Z,99708.84
2019-03-11T07:27:37.511Z,99712.30
2019-03-11T07:30:07.441Z,99718.82
2019-03-11T07:32:36.513Z,99718.84
2019-03-11T07:35:08.700Z,99720.61
2019-03-11T07:37:36.730Z,99726.73
2019-03-11T07:40:06.477Z,99726.78
2019-03-11T07:42:35.598Z,99723.87
2019-03-11T07:45:04.936Z,99729.08
2019-03-11T07:47:34.311Z,99728.20
2019-03-11T07:50:04.000Z,99722.14
2019-03-11T07:52:33.118Z,99726.02
2019-03-11T07:55:02.307Z,99736.41
2019-03-11T07:57:31.416Z,99727.81
2019-03-11T08:00:00.587Z,99735.19
2019-03-11T08:02:29.748Z,99737.34
2019-03-11T08:04:58.830Z,99728.25
2019-03-11T08:07:27.916Z,99743.48
2019-03-11T08:09:57.047Z,99750.89
2019-03-11T08:12:26.152Z,99741.48
2019-03-11T08:14:55.189Z,99742.80
2019-03-11T08:17:24.335Z,99745.88
2019-03-11T08:19:53.462Z,99748.95
2019-03-11T08:22:22.594Z,99758.13
2019-03-11T08:24:51.666Z,99763.70
2019-03-11T08:27:20.843Z,99762.82
2019-03-11T08:29:50.803Z,99773.18
2019-03-11T08:32:19.834Z,99775.36
2019-03-11T08:34:48.868Z,99782.72
2019-03-11T08:37:18.044Z,99788.80
2019-03-11T08:39:47.096Z,99782.27
2019-03-11T08:42:16.212Z,99779.79
2019-03-11T08:44:45.278Z,99781.17
2019-03-11T08:47:14.376Z,99786.93
2019-03-11T08:49:43.463Z,99786.97
2019-03-11T08:52:12.629Z,99796.50
2019-03-11T08:54:41.720Z,99803.45
2019-03-11T08:57:10.927Z,99806.93
2019-03-11T08:59:39.958Z,99807.34
2019-03-11T09:02:09.130Z,99816.95
2019-03-11T09:04:38.351Z,99807.86
2019-03-11T09:07:07.584Z,99817.93
2019-03-11T09:09:36.826Z,99815.03
2019-03-11T09:12:05.898Z,99813.39
2019-03-11T09:14:35.006Z,99809.13
2019-03-11T09:17:04.634Z,99813.09
2019-03-11T09:19:33.825Z,99836.55
2019-03-11T09:22:02.941Z,99814.38
2019-03-11T09:24:32.013Z,99827.80
2019-03-11T09:27:01.187Z,99820.39
2019-03-11T09:29:30.332Z,99835.55
2019-03-11T09:31:59.452Z,99845.52
2019-03-11T09:34:28.587Z,99843.31
2019-03-11T09:36:57.867Z,99836.83
2019-03-11T09:39:26.945Z,99836.44
2019-03-11T09:41:56.033Z,99844.31
2019-03-11T09:44:25.237Z,99844.36
2019-03-11T09:46:54.292Z,99847.01
2019-03-11T09:49:24.937Z,99849.62
2019-03-11T09:51:53.944Z,99850.48
2019-03-11T09:54:23.059Z,99853.95
2019-03-11T09:56:52.193Z,99857.88
2019-03-11T09:59:22.430Z,99871.73
2019-03-11T10:01:51.479Z,99872.61
2019-03-11T10:04:20.609Z,99877.37
2019-03-11T10:06:50.009Z,99879.97
2019-03-11T10:09:19.135Z,99883.95
2019-03-11T10:11:48.220Z,99877.05
2019-03-11T10:14:17.555Z,99877.99
2019-03-11T10:16:46.670Z,99877.14
2019-03-11T10:19:15.921Z,99877.19
2019-03-11T10:21:45.184Z,99889.41
2019-03-11T10:24:14.340Z,99879.02
2019-03-11T10:26:43.378Z,99881.20
2019-03-11T10:29:12.471Z,99879.89
2019-03-11T10:31:41.526Z,99886.45
2019-03-11T10:34:10.675Z,99890.80
2019-03-11T10:36:39.832Z,99878.94
2019-03-11T10:39:09.062Z,99891.52
2019-03-11T10:41:38.110Z,99879.72
2019-03-11T10:44:07.185Z,99873.05
2019-03-11T10:46:36.227Z,99876.77
2019-03-11T10:49:05.350Z,99877.88
2019-03-11T10:51:34.349Z,99887.28
2019-03-11T10:54:03.475Z,99865.44
2019-03-11T10:56:32.498Z,99868.19
2019-03-11T10:59:01.607Z,99862.48
2019-03-11T11:01:30.661Z,99869.88
2019-03-11T11:03:59.728Z,99876.98
2019-03-11T11:06:28.796Z,99868.92
2019-03-11T11:08:57.818Z,99859.45
2019-03-11T11:11:26.880Z,99860.32
2019-03-11T11:13:55.938Z,99863.67
2019-03-11T11:16:25.081Z,99868.80
2019-03-11T11:18:54.173Z,99874.48
2019-03-11T11:21:23.270Z,99876.69
2019-03-11T11:23:52.262Z,99894.41
2019-03-11T11:26:21.375Z,99891.78
2019-03-11T11:28:50.423Z,99896.55
2019-03-11T11:31:19.488Z,99886.52
2019-03-11T11:33:48.518Z,99907.09
2019-03-11T11:36:17.567Z,99904.88
2019-03-11T11:38:46.641Z,99906.12
2019-03-11T11:41:16.692Z,99909.70
2019-03-11T11:43:45.795Z,99914.93
2019-03-11T11:46:14.897Z,99917.81
2019-03-11T11:48:43.914Z,99925.40
2019-03-11T11:51:12.978Z,99922.45
2019-03-11T11:53:42.025Z,99922.53
2019-03-11T11:56:11.094Z,99925.16
2019-03-11T11:58:40.957Z,99926.00
2019-03-11T12:01:10.102Z,99927.30
2019-03-11T12:03:39.118Z,99936.30
2019-03-11T12:06:08.223Z,99935.94
2019-03-11T12:08:37.208Z,99946.18
2019-03-11T12:11:06.299Z,99936.70
2019-03-11T12:13:35.363Z,99946.45
2019-03-11T12:16:04.477Z,99950.54
2019-03-11T12:18:33.541Z,99947.07
2019-03-11T12:21:02.603Z,99949.91
2019-03-11T12:23:31.792Z,99958.34
2019-03-11T12:26:00.844Z,99932.98
2019-03-11T12:28:29.936Z,99943.54
2019-03-11T12:30:59.087Z,99926.54
2019-03-11T12:33:28.165Z,99943.41
2019-03-11T12:35:57.293Z,99953.28
2019-03-11T12:38:28.682Z,99956.55
2019-03-11T12:40:57.199Z,99956.34
2019-03-11T12:43:26.250Z,99954.81
2019-03-11T12:45:55.529Z,99971.23
2019-03-11T12:48:24.573Z,99982.70
2019-03-11T12:50:53.756Z,99977.55
2019-03-11T12:53:22.919Z,99986.36
2019-03-11T12:55:52.140Z,99992.91
2019-03-11T12:58:21.466Z,99985.94
2019-03-11T13:00:50.530Z,99994.65
2019-03-11T13:03:19.953Z,99990.19
2019-03-11T13:05:49.057Z,99996.23
2019-03-11T13:08:18.241Z,99994.80
2019-03-11T13:10:47.267Z,99977.67
2019-03-11T13:13:19.010Z,99985.49
2019-03-11T13:15:47.113Z,99993.37
2019-03-11T13:18:33.382Z,100000.44
2019-03-11T13:21:06.266Z,100003.98
2019-03-11T13:23:35.852Z,100010.54
2019-03-11T13:26:04.932Z,100016.25
2019-03-11T13:28:34.044Z,100026.42
2019-03-11T13:31:03.133Z,100026.09
2019-03-11T13:33:33.447Z,100044.53
2019-03-11T13:36:02.865Z,100069.94
2019-03-11T13:38:34.378Z,100063.03
2019-03-11T13:41:02.777Z,100064.78
2019-03-11T13:43:31.841Z,100065.09
2019-03-11T13:46:00.953Z,100061.97
2019-03-11T13:48:29.976Z,100060.60
2019-03-11T13:50:59.043Z,100061.42
2019-03-11T13:53:28.083Z,100073.70
2019-03-11T13:55:57.177Z,100051.06
2019-03-11T13:58:26.782Z,100050.57
2019-03-11T14:00:56.965Z,100049.75
2019-03-11T14:03:26.375Z,100058.12
2019-03-11T14:05:55.598Z,100068.72
2019-03-11T14:08:24.649Z,100073.16
2019-03-11T14:10:53.782Z,100067.07
2019-03-11T14:13:23.040Z,100074.11
2019-03-11T14:15:52.145Z,100077.63
2019-03-11T14:18:21.150Z,100084.19
2019-03-11T14:20:50.197Z,100082.88
2019-03-11T14:23:19.222Z,100078.06
2019-03-11T14:25:48.334Z,100086.30
2019-03-11T14:28:17.346Z,100074.50
2019-03-11T14:30:46.818Z,100077.13
2019-03-11T14:33:15.858Z,100088.89
2019-03-11T14:35:45.735Z,100090.63
2019-03-11T14:38:14.811Z,100083.66
2019-03-11T14:40:43.850Z,100079.77
2019-03-11T14:43:12.867Z,100115.13
2019-03-11T14:45:41.963Z,100104.66
2019-03-11T14:48:11.031Z,100042.34
2019-03-11T14:50:40.356Z,100121.23
2019-03-11T14:53:09.397Z,100123.86
2019-03-11T14:55:40.318Z,100125.14
2019-03-11T14:58:09.413Z,100126.91
2019-03-11T15:00:38.470Z,100123.38
2019-03-11T15:03:07.514Z,100097.19
2019-03-11T15:05:36.545Z,100111.16
2019-03-11T15:08:05.563Z,100105.48
2019-03-11T15:10:34.585Z,100146.95
2019-03-11T15:13:03.607Z,100137.81
2019-03-11T15:15:32.714Z,100133.90
2019-03-11T15:18:01.769Z,100129.95
2019-03-11T15:20:30.959Z,100129.08
2019-03-11T15:23:06.218Z,100136.93
2019-03-11T15:25:30.844Z,100123.00
2019-03-11T15:27:59.967Z,100131.70
2019-03-11T15:30:29.053Z,100138.26
2019-03-11T15:32:58.124Z,100141.30
2019-03-11T15:35:27.218Z,100173.08
2019-03-11T15:37:56.410Z,100178.30
2019-03-11T15:40:25.600Z,100182.23
2019-03-11T15:42:54.675Z,100166.55
2019-03-11T15:45:23.864Z,100168.73
2019-03-11T15:47:52.912Z,100167.42
2019-03-11T15:50:24.077Z,100161.75
2019-03-11T15:52:53.297Z,100166.99
2019-03-11T15:55:22.414Z,100164.86
2019-03-11T15:57:51.649Z,100163.98
2019-03-11T16:00:20.878Z,100150.87
2019-03-11T16:02:50.078Z,100161.77
2019-03-11T16:05:19.617Z,100170.03
2019-03-11T16:07:48.825Z,100168.28
2019-03-11T16:10:17.934Z,100165.69
2019-03-11T16:12:47.058Z,100164.38
2019-03-11T16:15:16.318Z,100168.73
2019-03-11T16:17:45.470Z,100163.93
2019-03-11T16:20:14.887Z,100163.48
2019-03-11T16:22:44.028Z,100168.72
2019-03-11T16:25:13.144Z,100163.47
2019-03-11T16:27:42.231Z,100180.46
2019-03-11T16:30:13.764Z,100186.56
2019-03-11T16:32:57.581Z,100193.98
2019-03-11T16:35:13.631Z,100186.54
2019-03-11T16:37:42.860Z,100196.56
2019-03-11T16:40:12.242Z,100195.26
2019-03-11T16:42:41.333Z,100210.04
2019-03-11T16:45:10.893Z,100209.59
2019-03-11T16:47:39.959Z,100224.81
2019-03-11T16:50:11.523Z,100205.65
2019-03-11T16:52:40.615Z,100196.05
2019-03-11T16:55:11.041Z,100214.33
2019-03-11T16:57:40.115Z,100240.45
2019-03-11T17:00:14.548Z,100261.33
2019-03-11T17:02:43.708Z,100255.20
2019-03-11T17:05:12.852Z,100264.78
2019-03-11T17:07:42.062Z,100266.48
2019-03-11T17:10:12.169Z,100270.80
2019-03-11T17:12:41.394Z,100270.77
2019-03-11T17:15:10.638Z,100282.94
2019-03-11T17:17:39.786Z,100294.23
2019-03-11T17:20:10.010Z,100314.67
2019-03-11T17:22:39.132Z,100329.02
2019-03-11T17:25:09.839Z,100314.16
2019-03-11T17:27:38.936Z,100346.75
2019-03-11T17:30:09.631Z,100349.73
2019-03-11T17:32:38.824Z,100348.82
2019-03-11T17:35:08.473Z,100370.98
2019-03-11T17:37:37.611Z,100366.95
2019-03-11T17:40:07.362Z,100377.39
2019-03-11T17:42:36.411Z,100375.57
2019-03-11T17:45:05.654Z,100389.34
2019-03-11T17:47:34.769Z,100394.04
2019-03-11T17:50:04.052Z,100397.45
2019-03-11T17:52:33.170Z,100401.00
2019-03-11T17:55:02.196Z,100403.20
2019-03-11T17:57:31.263Z,100400.59
2019-03-11T18:00:00.425Z,100405.83
2019-03-11T18:02:29.535Z,100410.22
2019-03-11T18:04:58.600Z,100401.52
2019-03-11T18:07:27.696Z,100417.20
2019-03-11T18:09:56.823Z,100418.04
2019-03-11T18:12:25.867Z,100420.70
2019-03-11T18:14:54.972Z,100432.06
2019-03-11T18:17:24.059Z,100433.83
2019-03-11T18:19:53.092Z,100449.48
2019-03-11T18:22:22.181Z,100444.30
2019-03-11T18:24:51.180Z,100444.32
2019-03-11T18:27:20.447Z,100437.80
2019-03-11T18:29:49.735Z,100455.23
2019-03-11T18:32:18.838Z,100451.70
2019-03-11T18:34:48.052Z,100441.77
2019-03-11T18:37:17.358Z,100458.75
2019-03-11T18:39:46.463Z,100471.44
2019-03-11T18:42:24.979Z,100475.41
2019-03-11T18:44:46.392Z,100489.30
2019-03-11T18:47:15.422Z,100491.05
2019-03-11T18:49:44.530Z,100484.07
2019-03-11T18:52:13.664Z,100498.37
2019-03-11T18:54:42.753Z,100523.58
2019-03-11T18:57:11.868Z,100520.88
2019-03-11T18:59:40.959Z,100533.84
2019-03-11T19:02:10.031Z,100546.31
2019-03-11T19:04:39.187Z,100553.66
2019-03-11T19:07:08.272Z,100542.27
2019-03-11T19:09:37.437Z,100544.44
2019-03-11T19:12:06.472Z,100546.53
2019-03-11T19:14:35.572Z,100556.08
2019-03-11T19:17:04.602Z,100543.89
2019-03-11T19:19:45.375Z,100547.80
2019-03-11T19:22:04.646Z,100551.30
2019-03-11T19:24:33.759Z,100564.34
2019-03-11T19:27:02.888Z,100560.06
2019-03-11T19:29:31.944Z,100561.36
2019-03-11T19:32:01.003Z,100570.55
2019-03-11T19:34:30.101Z,100573.20
2019-03-11T19:36:59.318Z,100571.06
2019-03-11T19:39:28.519Z,100574.16
2019-03-11T19:41:57.568Z,100583.32
2019-03-11T19:44:26.658Z,100580.27
2019-03-11T19:46:55.722Z,100579.88
2019-03-11T19:49:24.848Z,100588.64
2019-03-11T19:51:53.967Z,100594.71
2019-03-11T19:54:23.119Z,100599.08
2019-03-11T19:56:52.202Z,100596.84
2019-03-11T19:59:21.331Z,100590.80
2019-03-11T20:01:50.508Z,100601.27
2019-03-11T20:04:19.729Z,100603.44
2019-03-11T20:06:48.962Z,100599.55
2019-03-11T20:09:18.161Z,100602.64
2019-03-11T20:11:47.305Z,100595.67
2019-03-11T20:14:16.494Z,100607.03
2019-03-11T20:16:45.646Z,100608.34
2019-03-11T20:19:14.734Z,100611.77
2019-03-11T20:21:43.856Z,100618.77
2019-03-11T20:24:13.018Z,100618.77
2019-03-11T20:26:42.114Z,100622.69
2019-03-11T20:29:11.450Z,100627.05
2019-03-11T20:31:40.514Z,100629.63
2019-03-11T20:34:09.629Z,100632.27
2019-03-11T20:36:38.601Z,100634.43
2019-03-11T20:39:08.011Z,100634.43
2019-03-11T20:41:37.119Z,100645.80
2019-03-11T20:44:06.171Z,100648.82
2019-03-11T20:46:35.312Z,100645.35
2019-03-11T20:49:04.415Z,100651.02
2019-03-11T20:51:33.594Z,100657.16
2019-03-11T20:54:02.739Z,100659.36
2019-03-11T20:56:31.772Z,100660.73
2019-03-11T20:59:01.042Z,100662.86
2019-03-11T21:01:30.168Z,100664.17
2019-03-11T21:03:59.282Z,100674.64
2019-03-11T21:06:28.284Z,100667.70
2019-03-11T21:08:57.398Z,100669.87
2019-03-11T21:11:26.569Z,100669.42
2019-03-11T21:13:55.851Z,100667.70
2019-03-11T21:16:25.106Z,100672.48
2019-03-11T21:18:54.185Z,100673.34
2019-03-11T21:21:23.287Z,100681.61
2019-03-11T21:24:01.553Z,100674.16
2019-03-11T21:26:23.130Z,100676.33
2019-03-11T21:28:52.351Z,100686.31
2019-03-11T21:31:21.524Z,100688.45
2019-03-11T21:33:58.247Z,100691.54
2019-03-11T21:36:21.380Z,100690.16
2019-03-11T21:38:50.599Z,100687.55
2019-03-11T21:41:19.701Z,100691.02
2019-03-11T21:43:49.068Z,100696.24
2019-03-11T21:46:18.128Z,100702.32
2019-03-11T21:48:47.426Z,100701.87
2019-03-11T21:51:16.540Z,100703.14
2019-03-11T21:53:45.653Z,100704.86
2019-03-11T21:56:14.725Z,100702.22
2019-03-11T21:58:43.824Z,100705.23
2019-03-11T22:01:13.963Z,100709.59
2019-03-11T22:03:43.080Z,100707.77
2019-03-11T22:06:12.576Z,100711.58
2019-03-11T22:08:41.636Z,100712.84
2019-03-11T22:11:10.739Z,100718.91
2019-03-11T22:13:39.782Z,100721.45
2019-03-11T22:16:08.826Z,100721.81
2019-03-11T22:18:37.878Z,100720.84
2019-03-11T22:21:06.902Z,100726.80
2019-03-11T22:23:36.049Z,100730.17
2019-03-11T22:26:05.214Z,100730.98
2019-03-11T22:28:34.358Z,100734.81
2019-03-11T22:31:03.390Z,100740.84
2019-03-11T22:33:34.801Z,100744.30
2019-03-11T22:36:03.184Z,100738.16
2019-03-11T22:38:32.274Z,100741.16
2019-03-11T22:41:01.309Z,100737.20
2019-03-11T22:43:30.418Z,100735.37
2019-03-11T22:45:59.497Z,100733.12
2019-03-11T22:48:28.523Z,100730.39
2019-03-11T22:50:57.568Z,100733.80
2019-03-11T22:53:26.629Z,100733.25
2019-03-11T22:55:55.646Z,100734.06
2019-03-11T22:58:24.715Z,100736.13
2019-03-11T23:01:05.237Z,100737.33
2019-03-11T23:03:34.305Z,100735.94
2019-03-11T23:06:03.331Z,100731.94
2019-03-11T23:08:33.274Z,100740.45
2019-03-11T23:11:02.279Z,100738.20
2019-03-11T23:13:31.284Z,100741.11
2019-03-11T23:16:00.376Z,100732.30
2019-03-11T23:18:29.403Z,100721.34
2019-03-11T23:20:58.466Z,100726.48
2019-03-11T23:23:27.515Z,100732.03
2019-03-11T23:25:56.622Z,100729.34
2019-03-11T23:28:25.668Z,100737.94
2019-03-11T23:30:54.717Z,100739.53
2019-03-11T23:33:23.811Z,100738.14
2019-03-11T23:35:52.860Z,100735.02
2019-03-11T23:38:21.898Z,100737.53
2019-03-11T23:40:51.020Z,100736.97
2019-03-11T23:43:20.152Z,100726.45
2019-03-11T23:45:49.303Z,100718.13
2019-03-11T23:48:18.418Z,100712.86
2019-03-11T23:50:47.482Z,100711.06
2019-03-11T23:53:16.516Z,100710.95
2019-03-11T23:55:45.635Z,100703.95
2019-03-11T23:58:14.698Z,100711.22
